M/V Adamas — SXYL — position and weather

sailwx.info

Track history (hours):
 
Tides and Currents Weather Stations Pressure Air Temp Water Temp Dewpoint Dewpoint Depression Visibility Wind Speed Wind Dir Waves Ship Positions

M/V Adamas

Last reported at 2018-Feb-24 03:02 UTC. Time now 2018-Feb-26 01:49 UTC.
Position N 32°56' E 034°43'.

Length 124 m; draft 5.5 m.

Type: Cargo ship. MMSI: 240544000.

Date/timePositionNaut miles runAvg speedWind from/ knotsBaromVisibWave heightAir tempDewpointWater temp
2018-Feb-24 03:02N 32°56' E 034°43'211.2
2018-Feb-24 02:53N 32°56' E 034°45'411.3
2018-Feb-24 02:29N 32°55' E 034°50'611.2
2018-Feb-24 01:56N 32°53' E 034°57'4 9.9
2018-Feb-24 01:29N 32°50' E 035°01'1 0.0
2018-Feb-22 23:22N 32°51' E 035°01'1 2.3
2018-Feb-22 22:58N 32°51' E 035°00'1 0.6
2018-Feb-22 21:22N 32°52' E 035°00'0 0.0
2018-Feb-22 15:28N 32°52' E 035°01'0 0.0
2018-Feb-22 14:58N 32°52' E 035°01'0 0.1
2018-Feb-22 13:43N 32°52' E 035°00'0 0.1
2018-Feb-22 13:28N 32°52' E 035°01'0 0.1
2018-Feb-22 12:58N 32°52' E 035°00'0 0.0
2018-Feb-22 12:28N 32°52' E 035°00'0 0.0
2018-Feb-22 11:52N 32°52' E 035°00'0 0.0
2018-Feb-22 11:25N 32°52' E 035°00'0 0.0
2018-Feb-22 10:49N 32°52' E 035°00'0 0.0
2018-Feb-22 10:22N 32°52' E 035°00'0 0.0
2018-Feb-22 08:25N 32°52' E 035°00'0 0.1
2018-Feb-22 07:49N 32°52' E 035°00'0 0.0
2018-Feb-22 07:19N 32°52' E 035°00'0 0.0
2018-Feb-22 06:55N 32°52' E 035°00'0 0.0
2018-Feb-22 06:01N 32°52' E 035°00'0 0.0
2018-Feb-22 05:25N 32°52' E 035°00'0 0.0
2018-Feb-22 01:01N 32°52' E 035°01'0 0.1
2018-Feb-22 00:55N 32°52' E 035°01'0 0.1
2018-Feb-22 00:25N 32°52' E 035°01'0 0.1
2018-Feb-21 22:55N 32°52' E 035°01'1 1.4
2018-Feb-21 22:20N 32°53' E 034°60'2 7.5
2018-Feb-21 22:00N 32°53' E 034°57'510.3
2018-Feb-21 21:30N 32°54' E 034°51'510.1
2018-Feb-21 21:00N 32°55' E 034°45'510.0
2018-Feb-21 20:30N 32°56' E 034°39'5 9.8
2018-Feb-21 20:00N 32°57' E 034°33'5 9.9
2018-Feb-21 19:29N 32°58' E 034°27'710.0
2018-Feb-21 18:45N 32°59' E 034°19'2 9.9
2018-Feb-21 18:30N 32°59' E 034°16'510.0
2018-Feb-21 18:00N 33°00' E 034°10'48110.1
2018-Feb-19 18:22N 37°15' E 025°52'410.4
2018-Feb-19 18:00N 37°18' E 025°49'510.3
2018-Feb-19 17:30N 37°22' E 025°45'510.2
2018-Feb-19 17:00N 37°26' E 025°40'510.5
2018-Feb-19 16:30N 37°29' E 025°36'510.6
2018-Feb-19 16:00N 37°33' E 025°31'510.8
2018-Feb-19 15:30N 37°37' E 025°26'611.0
2018-Feb-19 15:00N 37°41' E 025°21'510.9
2018-Feb-19 14:30N 37°45' E 025°16'610.8
2018-Feb-19 13:59N 37°49' E 025°11'510.8
2018-Feb-19 13:30N 37°53' E 025°07'  
2018-Feb-15 05:53N 32°57' E 034°36'411.2
2018-Feb-15 05:30N 32°56' E 034°41'611.7
2018-Feb-15 05:00N 32°55' E 034°47'611.5
2018-Feb-15 04:29N 32°54' E 034°55'610.5
2018-Feb-15 03:55N 32°51' E 035°01'  
Track history (hours):
 
Tides and Currents Weather Stations Pressure Air Temp Water Temp Dewpoint Dewpoint Depression Visibility Wind Speed Wind Dir Waves Ship Positions

M/V Adamas

Last reported at 2018-Feb-24 03:02 UTC. Time now 2018-Feb-26 01:49 UTC.
Position N 32°56' E 034°43'.

Length 124 m; draft 5.5 m.

Type: Cargo ship. MMSI: 240544000.

Date/timePositionNaut miles runAvg speedWind from/ knotsBaromVisibWave heightAir tempDewpointWater temp
2018-Feb-24 03:02N 32°56' E 034°43'211.2
2018-Feb-24 02:53N 32°56' E 034°45'411.3
2018-Feb-24 02:29N 32°55' E 034°50'611.2
2018-Feb-24 01:56N 32°53' E 034°57'4 9.9
2018-Feb-24 01:29N 32°50' E 035°01'1 0.0
2018-Feb-22 23:22N 32°51' E 035°01'1 2.3
2018-Feb-22 22:58N 32°51' E 035°00'1 0.6
2018-Feb-22 21:22N 32°52' E 035°00'0 0.0
2018-Feb-22 15:28N 32°52' E 035°01'0 0.0
2018-Feb-22 14:58N 32°52' E 035°01'0 0.1
2018-Feb-22 13:43N 32°52' E 035°00'0 0.1
2018-Feb-22 13:28N 32°52' E 035°01'0 0.1
2018-Feb-22 12:58N 32°52' E 035°00'0 0.0
2018-Feb-22 12:28N 32°52' E 035°00'0 0.0
2018-Feb-22 11:52N 32°52' E 035°00'0 0.0
2018-Feb-22 11:25N 32°52' E 035°00'0 0.0
2018-Feb-22 10:49N 32°52' E 035°00'0 0.0
2018-Feb-22 10:22N 32°52' E 035°00'0 0.0
2018-Feb-22 08:25N 32°52' E 035°00'0 0.1
2018-Feb-22 07:49N 32°52' E 035°00'0 0.0
2018-Feb-22 07:19N 32°52' E 035°00'0 0.0
2018-Feb-22 06:55N 32°52' E 035°00'0 0.0
2018-Feb-22 06:01N 32°52' E 035°00'0 0.0
2018-Feb-22 05:25N 32°52' E 035°00'0 0.0
2018-Feb-22 01:01N 32°52' E 035°01'0 0.1
2018-Feb-22 00:55N 32°52' E 035°01'0 0.1
2018-Feb-22 00:25N 32°52' E 035°01'0 0.1
2018-Feb-21 22:55N 32°52' E 035°01'1 1.4
2018-Feb-21 22:20N 32°53' E 034°60'2 7.5
2018-Feb-21 22:00N 32°53' E 034°57'510.3
2018-Feb-21 21:30N 32°54' E 034°51'510.1
2018-Feb-21 21:00N 32°55' E 034°45'510.0
2018-Feb-21 20:30N 32°56' E 034°39'5 9.8
2018-Feb-21 20:00N 32°57' E 034°33'5 9.9
2018-Feb-21 19:29N 32°58' E 034°27'710.0
2018-Feb-21 18:45N 32°59' E 034°19'2 9.9
2018-Feb-21 18:30N 32°59' E 034°16'510.0
2018-Feb-21 18:00N 33°00' E 034°10'48110.1
2018-Feb-19 18:22N 37°15' E 025°52'410.4
2018-Feb-19 18:00N 37°18' E 025°49'510.3
2018-Feb-19 17:30N 37°22' E 025°45'510.2
2018-Feb-19 17:00N 37°26' E 025°40'510.5
2018-Feb-19 16:30N 37°29' E 025°36'510.6
2018-Feb-19 16:00N 37°33' E 025°31'510.8
2018-Feb-19 15:30N 37°37' E 025°26'611.0
2018-Feb-19 15:00N 37°41' E 025°21'510.9
2018-Feb-19 14:30N 37°45' E 025°16'610.8
2018-Feb-19 13:59N 37°49' E 025°11'510.8
2018-Feb-19 13:30N 37°53' E 025°07'  
2018-Feb-15 05:53N 32°57' E 034°36'411.2
2018-Feb-15 05:30N 32°56' E 034°41'611.7
2018-Feb-15 05:00N 32°55' E 034°47'611.5
2018-Feb-15 04:29N 32°54' E 034°55'610.5
2018-Feb-15 03:55N 32°51' E 035°01'  

Dump ship's entire track history